Time,TemperatureF,DewpointF,PressureIn,WindDirection,WindDirectionDegrees,WindSpeedMPH,WindSpeedGustMPH,Humidity,HourlyPrecipIn,Conditions,Clouds,dailyrainin,SoftwareType,DateUTC
2013-02-17 00:09:00,18.2,13.1,30.20,West,265,2.0,2.0,80,0.00,,,0.00,Wunderground v.1.15,2013-02-17 05:09:00,
2013-02-17 00:19:00,18.0,13.4,30.19,West,265,2.0,2.0,82,0.00,,,0.00,Wunderground v.1.15,2013-02-17 05:19:00,
2013-02-17 00:29:00,17.7,13.7,30.19,West,265,1.0,1.0,84,0.00,,,0.00,Wunderground v.1.15,2013-02-17 05:29:00,
2013-02-17 00:39:00,17.7,13.7,30.20,West,265,1.0,3.0,84,0.00,,,0.00,Wunderground v.1.15,2013-02-17 05:39:00,
2013-02-17 00:49:00,17.7,14.0,30.20,West,265,2.0,2.0,85,0.00,,,0.00,Wunderground v.1.15,2013-02-17 05:49:00,
2013-02-17 00:59:00,17.8,14.3,30.20,West,265,0.0,0.0,86,0.00,,,0.00,Wunderground v.1.15,2013-02-17 05:59:00,
2013-02-17 01:09:00,17.9,14.4,30.20,West,265,1.0,2.0,86,0.00,,,0.00,Wunderground v.1.15,2013-02-17 06:09:00,
2013-02-17 01:19:00,17.9,14.4,30.19,West,265,0.0,0.0,86,0.00,,,0.00,Wunderground v.1.15,2013-02-17 06:19:00,
2013-02-17 01:29:00,17.9,14.4,30.19,West,265,0.0,0.0,86,0.00,,,0.00,Wunderground v.1.15,2013-02-17 06:29:00,
2013-02-17 01:38:00,18.1,14.9,30.20,West,265,1.0,1.0,87,0.00,,,0.00,Wunderground v.1.15,2013-02-17 06:38:00,
2013-02-17 01:49:00,18.0,14.8,30.20,West,265,1.0,1.0,87,0.00,,,0.00,Wunderground v.1.15,2013-02-17 06:49:00,
2013-02-17 01:59:00,17.8,14.8,30.20,West,265,1.0,1.0,88,0.00,,,0.00,Wunderground v.1.15,2013-02-17 06:59:00,
2013-02-17 02:04:00,17.7,14.8,30.20,West,265,1.0,1.0,88,0.00,,,0.00,Wunderground v.1.15,2013-02-17 07:04:00,
2013-02-17 02:18:00,17.3,14.6,30.20,West,265,1.0,1.0,89,0.00,,,0.00,Wunderground v.1.15,2013-02-17 07:18:00,
2013-02-17 02:28:00,17.1,14.4,30.20,West,265,1.0,1.0,89,0.00,,,0.00,Wunderground v.1.15,2013-02-17 07:28:00,
2013-02-17 02:38:00,16.6,13.7,30.20,West,265,1.0,1.0,88,0.00,,,0.00,Wunderground v.1.15,2013-02-17 07:38:00,
2013-02-17 02:48:00,16.2,13.5,30.21,West,265,1.0,1.0,89,0.00,,,0.00,Wunderground v.1.15,2013-02-17 07:48:00,
2013-02-17 02:58:00,16.0,13.3,30.21,West,265,0.0,0.0,89,0.00,,,0.00,Wunderground v.1.15,2013-02-17 07:58:00,
2013-02-17 03:08:00,15.7,13.0,30.21,West,265,0.0,0.0,89,0.00,,,0.00,Wunderground v.1.15,2013-02-17 08:08:00,
2013-02-17 03:18:00,15.3,12.6,30.21,West,265,0.0,0.0,89,0.00,,,0.00,Wunderground v.1.15,2013-02-17 08:18:00,
2013-02-17 03:28:00,14.7,12.0,30.21,West,265,0.0,0.0,89,0.00,,,0.00,Wunderground v.1.15,2013-02-17 08:28:00,
2013-02-17 03:38:00,14.4,11.8,30.21,West,265,0.0,0.0,89,0.00,,,0.00,Wunderground v.1.15,2013-02-17 08:38:00,
2013-02-17 03:48:00,14.2,11.8,30.21,West,265,0.0,0.0,90,0.00,,,0.00,Wunderground v.1.15,2013-02-17 08:48:00,
2013-02-17 03:58:00,14.3,11.9,30.22,West,265,0.0,0.0,90,0.00,,,0.00,Wunderground v.1.15,2013-02-17 08:58:00,
2013-02-17 04:08:00,14.3,11.9,30.22,West,265,0.0,0.0,90,0.00,,,0.00,Wunderground v.1.15,2013-02-17 09:08:00,
2013-02-17 04:18:00,14.3,11.9,30.22,West,265,0.0,0.0,90,0.00,,,0.00,Wunderground v.1.15,2013-02-17 09:18:00,
2013-02-17 04:28:00,14.1,11.7,30.22,West,265,0.0,0.0,90,0.00,,,0.00,Wunderground v.1.15,2013-02-17 09:28:00,
2013-02-17 04:38:00,14.0,11.6,30.22,West,265,0.0,0.0,90,0.00,,,0.00,Wunderground v.1.15,2013-02-17 09:38:00,
2013-02-17 04:48:00,14.3,12.2,30.22,West,265,0.0,0.0,91,0.00,,,0.00,Wunderground v.1.15,2013-02-17 09:48:00,
2013-02-17 04:58:00,14.5,12.4,30.22,West,265,0.0,0.0,91,0.00,,,0.00,Wunderground v.1.15,2013-02-17 09:58:00,
2013-02-17 05:08:00,14.6,12.2,30.22,West,265,0.0,0.0,90,0.00,,,0.00,Wunderground v.1.15,2013-02-17 10:08:00,
2013-02-17 05:18:00,14.7,12.3,30.22,West,265,0.0,1.0,90,0.00,,,0.00,Wunderground v.1.15,2013-02-17 10:18:00,
2013-02-17 05:28:00,14.4,11.8,30.23,West,265,0.0,0.0,89,0.00,,,0.00,Wunderground v.1.15,2013-02-17 10:28:00,
2013-02-17 05:38:00,14.2,11.6,30.23,West,265,0.0,0.0,89,0.00,,,0.00,Wunderground v.1.15,2013-02-17 10:38:00,
2013-02-17 05:44:00,13.9,11.3,30.23,West,265,0.0,0.0,89,0.00,,,0.00,Wunderground v.1.15,2013-02-17 10:44:00,
2013-02-17 05:58:00,13.4,10.5,30.24,West,265,0.0,0.0,88,0.00,,,0.00,Wunderground v.1.15,2013-02-17 10:58:00,
2013-02-17 06:08:00,13.0,10.1,30.24,West,265,0.0,0.0,88,0.00,,,0.00,Wunderground v.1.15,2013-02-17 11:08:00,
2013-02-17 06:18:00,12.4,9.5,30.25,West,265,0.0,0.0,88,0.00,,,0.00,Wunderground v.1.15,2013-02-17 11:18:00,
2013-02-17 06:28:00,12.0,9.1,30.25,West,265,0.0,0.0,88,0.00,,,0.00,Wunderground v.1.15,2013-02-17 11:28:00,
2013-02-17 06:38:00,11.8,9.2,30.26,West,265,0.0,0.0,89,0.00,,,0.00,Wunderground v.1.15,2013-02-17 11:38:00,
2013-02-17 06:48:00,11.7,9.1,30.25,West,265,0.0,1.0,89,0.00,,,0.00,Wunderground v.1.15,2013-02-17 11:48:00,
2013-02-17 06:58:00,11.9,9.3,30.26,West,265,0.0,0.0,89,0.00,,,0.00,Wunderground v.1.15,2013-02-17 11:58:00,
2013-02-17 07:08:00,11.8,9.2,30.27,West,265,0.0,0.0,89,0.00,,,0.00,Wunderground v.1.15,2013-02-17 12:08:00,
2013-02-17 07:18:00,11.6,9.0,30.27,West,265,0.0,0.0,89,0.00,,,0.00,Wunderground v.1.15,2013-02-17 12:18:00,
2013-02-17 07:28:00,11.3,8.4,30.27,West,265,0.0,0.0,88,0.00,,,0.00,Wunderground v.1.15,2013-02-17 12:28:00,
2013-02-17 07:38:00,11.0,8.1,30.28,West,265,0.0,0.0,88,0.00,,,0.00,Wunderground v.1.15,2013-02-17 12:38:00,
2013-02-17 07:48:00,11.1,8.5,30.28,West,265,0.0,0.0,89,0.00,,,0.00,Wunderground v.1.15,2013-02-17 12:48:00,
2013-02-17 07:58:00,11.5,8.9,30.28,West,265,0.0,0.0,89,0.00,,,0.00,Wunderground v.1.15,2013-02-17 12:58:00,
2013-02-17 08:08:00,12.0,9.4,30.28,West,265,0.0,0.0,89,0.00,,,0.00,Wunderground v.1.15,2013-02-17 13:08:00,
2013-02-17 08:14:00,12.3,9.7,30.28,West,265,0.0,0.0,89,0.00,,,0.00,Wunderground v.1.15,2013-02-17 13:14:00,
2013-02-17 08:28:00,13.4,10.5,30.29,West,265,1.0,1.0,88,0.00,,,0.00,Wunderground v.1.15,2013-02-17 13:28:00,
2013-02-17 08:38:00,13.8,10.6,30.29,West,265,2.0,4.0,87,0.00,,,0.00,Wunderground v.1.15,2013-02-17 13:38:00,
2013-02-17 08:48:00,14.3,11.1,30.30,NNW,339,3.0,3.0,87,0.00,,,0.00,Wunderground v.1.15,2013-02-17 13:48:00,
2013-02-17 08:54:00,14.6,10.9,30.30,NW,317,2.0,3.0,85,0.00,,,0.00,Wunderground v.1.15,2013-02-17 13:54:00,
2013-02-17 09:08:00,15.3,10.8,30.30,NW,315,3.0,3.0,82,0.00,,,0.00,Wunderground v.1.15,2013-02-17 14:08:00,
2013-02-17 09:14:00,15.6,10.8,30.30,WNW,289,3.0,3.0,81,0.00,,,0.00,Wunderground v.1.15,2013-02-17 14:14:00,
2013-02-17 09:28:00,16.6,11.5,30.31,WNW,285,2.0,2.0,80,0.00,,,0.00,Wunderground v.1.15,2013-02-17 14:28:00,
2013-02-17 09:38:00,17.5,11.2,30.31,WSW,254,2.0,2.0,76,0.00,,,0.00,Wunderground v.1.15,2013-02-17 14:38:00,
2013-02-17 09:58:00,18.4,11.2,30.32,NNW,334,3.0,4.0,73,0.00,,,0.00,Wunderground v.1.15,2013-02-17 14:58:00,
2013-02-17 10:08:00,19.0,11.1,30.32,NW,313,3.0,3.0,71,0.00,,,0.00,Wunderground v.1.15,2013-02-17 15:08:00,
2013-02-17 10:18:00,19.3,11.1,30.32,North,5,4.0,4.0,70,0.00,,,0.00,Wunderground v.1.15,2013-02-17 15:18:00,
2013-02-17 10:28:00,20.0,12.1,30.32,North,355,3.0,4.0,71,0.00,,,0.00,Wunderground v.1.15,2013-02-17 15:28:00,
2013-02-17 10:38:00,20.4,11.5,30.32,WNW,290,3.0,3.0,68,0.00,,,0.00,Wunderground v.1.15,2013-02-17 15:38:00,
2013-02-17 10:48:00,21.0,11.4,30.32,NW,304,2.0,2.0,66,0.00,,,0.00,Wunderground v.1.15,2013-02-17 15:48:00,
2013-02-17 10:58:00,21.3,11.0,30.32,NW,304,2.0,2.0,64,0.00,,,0.00,Wunderground v.1.15,2013-02-17 15:58:00,
2013-02-17 11:08:00,22.1,11.8,30.32,SW,219,1.0,2.0,64,0.00,,,0.00,Wunderground v.1.15,2013-02-17 16:08:00,
2013-02-17 11:18:00,22.3,10.5,30.32,NW,310,2.0,5.0,60,0.00,,,0.00,Wunderground v.1.15,2013-02-17 16:18:00,
2013-02-17 11:28:00,22.1,10.7,30.32,WSW,248,3.0,3.0,61,0.00,,,0.00,Wunderground v.1.15,2013-02-17 16:28:00,
2013-02-17 11:38:00,22.9,11.1,30.32,SSW,210,2.0,2.0,60,0.00,,,0.00,Wunderground v.1.15,2013-02-17 16:38:00,
2013-02-17 11:48:00,23.4,11.9,30.33,West,279,2.0,5.0,61,0.00,,,0.00,Wunderground v.1.15,2013-02-17 16:48:00,
2013-02-17 11:54:00,23.4,11.2,30.33,SSW,205,3.0,5.0,59,0.00,,,0.00,Wunderground v.1.15,2013-02-17 16:54:00,
2013-02-17 12:08:00,23.6,9.8,30.32,South,186,3.0,3.0,55,0.00,,,0.00,Wunderground v.1.15,2013-02-17 17:08:00,
2013-02-17 12:14:00,23.8,10.4,30.32,South,186,2.0,3.0,56,0.00,,,0.00,Wunderground v.1.15,2013-02-17 17:14:00,
2013-02-17 12:28:00,24.4,9.3,30.32,South,183,3.0,3.0,52,0.00,,,0.00,Wunderground v.1.15,2013-02-17 17:28:00,
2013-02-17 12:38:00,25.1,10.3,30.32,NW,313,1.0,2.0,53,0.00,,,0.00,Wunderground v.1.15,2013-02-17 17:38:00,
2013-02-17 12:48:00,25.3,9.7,30.31,NNW,346,4.0,8.0,51,0.00,,,0.00,Wunderground v.1.15,2013-02-17 17:48:00,
2013-02-17 12:58:00,25.3,10.1,30.31,NW,317,4.0,4.0,52,0.00,,,0.00,Wunderground v.1.15,2013-02-17 17:58:00,
2013-02-17 13:08:00,25.5,9.4,30.30,East,91,2.0,3.0,50,0.00,,,0.00,Wunderground v.1.15,2013-02-17 18:08:00,
2013-02-17 13:18:00,26.5,9.9,30.30,SW,232,4.0,4.0,49,0.00,,,0.00,Wunderground v.1.15,2013-02-17 18:18:00,
2013-02-17 13:34:00,27.0,9.9,30.30,SSW,205,2.0,4.0,48,0.00,,,0.00,Wunderground v.1.15,2013-02-17 18:34:00,
2013-02-17 13:48:00,27.0,8.9,30.29,South,169,4.0,5.0,46,0.00,,,0.00,Wunderground v.1.15,2013-02-17 18:48:00,
2013-02-17 13:58:00,26.6,7.6,30.29,South,186,6.0,6.0,44,0.00,,,0.00,Wunderground v.1.15,2013-02-17 18:58:00,
2013-02-17 14:08:00,27.1,7.5,30.29,West,272,3.0,3.0,43,0.00,,,0.00,Wunderground v.1.15,2013-02-17 19:08:00,
2013-02-17 14:18:00,27.6,8.0,30.29,SSE,166,4.0,4.0,43,0.00,,,0.00,Wunderground v.1.15,2013-02-17 19:18:00,
2013-02-17 14:29:00,28.4,9.7,30.29,WSW,256,2.0,3.0,45,0.00,,,0.00,Wunderground v.1.15,2013-02-17 19:29:00,
2013-02-17 14:38:00,28.4,8.2,30.29,WSW,238,4.0,4.0,42,0.00,,,0.00,Wunderground v.1.15,2013-02-17 19:38:00,
2013-02-17 14:48:00,28.2,7.5,30.29,NW,306,3.0,3.0,41,0.00,,,0.00,Wunderground v.1.15,2013-02-17 19:48:00,
2013-02-17 14:58:00,28.6,8.4,30.30,SSW,202,5.0,5.0,42,0.00,,,0.01,Wunderground v.1.15,2013-02-17 19:58:00,
2013-02-17 15:09:00,28.8,8.0,30.29,SSE,161,5.0,5.0,41,0.00,,,0.01,Wunderground v.1.15,2013-02-17 20:09:00,
2013-02-17 15:18:00,29.3,8.5,30.29,West,260,3.0,9.0,41,0.00,,,0.01,Wunderground v.1.15,2013-02-17 20:18:00,
2013-02-17 15:28:00,29.3,8.5,30.29,West,273,5.0,5.0,41,0.00,,,0.01,Wunderground v.1.15,2013-02-17 20:28:00,
2013-02-17 15:38:00,29.7,8.3,30.29,WSW,250,3.0,3.0,40,0.00,,,0.01,Wunderground v.1.15,2013-02-17 20:38:00,
2013-02-17 15:48:00,29.9,8.5,30.28,WNW,286,2.0,5.0,40,0.00,,,0.01,Wunderground v.1.15,2013-02-17 20:48:00,
2013-02-17 15:58:00,29.5,6.4,30.28,SSW,212,4.0,4.0,37,0.00,,,0.01,Wunderground v.1.15,2013-02-17 20:58:00,
2013-02-17 16:08:00,29.6,5.9,30.28,NW,319,4.0,4.0,36,0.00,,,0.01,Wunderground v.1.15,2013-02-17 21:08:00,
2013-02-17 16:18:00,29.5,7.0,30.28,SSW,206,3.0,5.0,38,0.00,,,0.01,Wunderground v.1.15,2013-02-17 21:18:00,
2013-02-17 16:29:00,29.6,5.9,30.28,WSW,247,4.0,4.0,36,0.00,,,0.01,Wunderground v.1.15,2013-02-17 21:29:00,
2013-02-17 16:38:00,29.5,5.8,30.28,SSE,153,4.0,5.0,36,0.00,,,0.01,Wunderground v.1.15,2013-02-17 21:38:00,
2013-02-17 16:48:00,29.7,8.3,30.28,SSE,158,4.0,4.0,40,0.00,,,0.01,Wunderground v.1.15,2013-02-17 21:48:00,
2013-02-17 16:58:00,29.9,7.3,30.28,WSW,243,3.0,3.0,38,0.00,,,0.01,Wunderground v.1.15,2013-02-17 21:58:00,
2013-02-17 17:08:00,29.8,7.8,30.28,WSW,246,3.0,3.0,39,0.00,,,0.01,Wunderground v.1.15,2013-02-17 22:08:00,
2013-02-17 17:18:00,29.8,7.8,30.28,South,177,3.0,3.0,39,0.00,,,0.01,Wunderground v.1.15,2013-02-17 22:18:00,
2013-02-17 17:28:00,29.8,8.9,30.28,SW,225,2.0,4.0,41,0.00,,,0.01,Wunderground v.1.15,2013-02-17 22:28:00,
2013-02-17 17:38:00,29.2,7.8,30.28,SSW,213,2.0,2.0,40,0.00,,,0.01,Wunderground v.1.15,2013-02-17 22:38:00,
2013-02-17 17:48:00,28.8,8.0,30.28,SSW,213,1.0,3.0,41,0.00,,,0.01,Wunderground v.1.15,2013-02-17 22:48:00,
2013-02-17 17:58:00,28.4,7.7,30.28,SW,214,1.0,1.0,41,0.00,,,0.01,Wunderground v.1.15,2013-02-17 22:58:00,
2013-02-17 18:08:00,28.1,6.8,30.28,SW,214,1.0,1.0,40,0.00,,,0.01,Wunderground v.1.15,2013-02-17 23:08:00,
2013-02-17 18:18:00,27.7,7.6,30.28,SW,214,0.0,0.0,42,0.00,,,0.01,Wunderground v.1.15,2013-02-17 23:18:00,
2013-02-17 18:28:00,27.2,7.6,30.28,SW,214,0.0,0.0,43,0.00,,,0.01,Wunderground v.1.15,2013-02-17 23:28:00,
2013-02-17 18:38:00,26.6,7.6,30.28,SW,214,0.0,0.0,44,0.00,,,0.01,Wunderground v.1.15,2013-02-17 23:38:00,
2013-02-17 18:48:00,25.7,12.6,30.28,SW,214,0.0,1.0,57,0.00,,,0.01,Wunderground v.1.15,2013-02-17 23:48:00,
2013-02-17 18:58:00,24.7,11.6,30.28,SW,214,1.0,1.0,57,0.00,,,0.01,Wunderground v.1.15,2013-02-17 23:58:00,
2013-02-17 19:08:00,24.2,9.5,30.28,SW,214,0.0,0.0,53,0.00,,,0.01,Wunderground v.1.15,2013-02-18 00:08:00,
2013-02-17 19:18:00,23.6,8.5,30.28,SW,214,0.0,0.0,52,0.00,,,0.01,Wunderground v.1.15,2013-02-18 00:18:00,
2013-02-17 19:28:00,23.6,10.2,30.28,SSW,212,1.0,1.0,56,0.00,,,0.01,Wunderground v.1.15,2013-02-18 00:28:00,
2013-02-17 19:38:00,23.3,8.7,30.28,SSW,212,0.0,0.0,53,0.00,,,0.01,Wunderground v.1.15,2013-02-18 00:38:00,
2013-02-17 19:48:00,23.0,11.2,30.27,SSW,212,0.0,0.0,60,0.00,,,0.01,Wunderground v.1.15,2013-02-18 00:48:00,
2013-02-17 19:54:00,22.9,11.8,30.27,SSW,212,0.0,0.0,62,0.00,,,0.01,Wunderground v.1.15,2013-02-18 00:54:00,
2013-02-17 20:08:00,22.3,11.2,30.27,SSW,212,0.0,0.0,62,0.00,,,0.01,Wunderground v.1.15,2013-02-18 01:08:00,
2013-02-17 20:18:00,22.2,11.1,30.27,SSW,212,0.0,0.0,62,0.00,,,0.01,Wunderground v.1.15,2013-02-18 01:18:00,
2013-02-17 20:24:00,22.1,11.4,30.27,SSW,212,0.0,0.0,63,0.00,,,0.01,Wunderground v.1.15,2013-02-18 01:24:00,
2013-02-17 20:38:00,21.8,12.2,30.27,SSW,212,0.0,0.0,66,0.00,,,0.01,Wunderground v.1.15,2013-02-18 01:38:00,
2013-02-17 20:48:00,21.3,11.0,30.27,SSW,212,0.0,0.0,64,0.00,,,0.01,Wunderground v.1.15,2013-02-18 01:48:00,
2013-02-17 20:58:00,21.3,11.0,30.27,SSW,212,0.0,0.0,64,0.00,,,0.01,Wunderground v.1.15,2013-02-18 01:58:00,
2013-02-17 21:08:00,21.2,10.6,30.27,SSW,212,0.0,0.0,63,0.00,,,0.01,Wunderground v.1.15,2013-02-18 02:08:00,
2013-02-17 21:18:00,21.2,10.9,30.27,SSW,212,0.0,0.0,64,0.00,,,0.01,Wunderground v.1.15,2013-02-18 02:18:00,
2013-02-17 21:28:00,21.3,12.0,30.28,SSW,212,0.0,0.0,67,0.00,,,0.01,Wunderground v.1.15,2013-02-18 02:28:00,
2013-02-17 21:39:00,21.5,10.8,30.28,South,188,0.0,3.0,63,0.00,,,0.01,Wunderground v.1.15,2013-02-18 02:39:00,
2013-02-17 21:49:00,22.0,10.2,30.28,SSE,156,2.0,3.0,60,0.00,,,0.01,Wunderground v.1.15,2013-02-18 02:49:00,
2013-02-17 21:58:00,22.5,10.7,30.28,SSE,156,2.0,2.0,60,0.00,,,0.01,Wunderground v.1.15,2013-02-18 02:58:00,
2013-02-17 22:08:00,22.4,10.2,30.28,SSE,155,2.0,2.0,59,0.00,,,0.01,Wunderground v.1.15,2013-02-18 03:08:00,
2013-02-17 22:14:00,22.4,10.6,30.28,SSE,155,2.0,2.0,60,0.00,,,0.01,Wunderground v.1.15,2013-02-18 03:14:00,
2013-02-17 22:28:00,21.7,10.7,30.28,SSE,156,0.0,0.0,62,0.00,,,0.01,Wunderground v.1.15,2013-02-18 03:28:00,
2013-02-17 22:38:00,21.5,10.5,30.28,SSE,156,0.0,3.0,62,0.00,,,0.01,Wunderground v.1.15,2013-02-18 03:38:00,
2013-02-17 22:44:00,22.0,9.8,30.28,SSE,155,1.0,3.0,59,0.00,,,0.01,Wunderground v.1.15,2013-02-18 03:44:00,
2013-02-17 22:54:00,22.3,10.5,30.28,SSE,155,1.0,2.0,60,0.00,,,0.01,Wunderground v.1.15,2013-02-18 03:54:00,
2013-02-17 23:08:00,22.4,9.8,30.27,SSE,151,3.0,3.0,58,0.00,,,0.01,Wunderground v.1.15,2013-02-18 04:08:00,
2013-02-17 23:18:00,22.8,9.4,30.27,SSE,148,2.0,3.0,56,0.00,,,0.01,Wunderground v.1.15,2013-02-18 04:18:00,
2013-02-17 23:28:00,23.4,10.0,30.27,SE,129,3.0,3.0,56,0.00,,,0.01,Wunderground v.1.15,2013-02-18 04:28:00,
2013-02-17 23:38:00,24.0,9.3,30.27,SE,128,3.0,5.0,53,0.00,,,0.01,Wunderground v.1.15,2013-02-18 04:38:00,
2013-02-17 23:48:00,24.2,9.5,30.27,SE,130,3.0,4.0,53,0.00,,,0.01,Wunderground v.1.15,2013-02-18 04:48:00,
2013-02-17 23:59:00,24.3,9.6,30.27,SE,131,3.0,3.0,53,0.00,,,0.01,Wunderground v.1.15,2013-02-18 04:59:00,